Weather at Slovenske Konjice Airfield

Public forecast

Using degrees Celsius for public forecast. Weather courtesy of forecast.io.

Closest aviation weather report (METAR) to Slovenske Konjice Airfield

Closest report is Maribor Edvard Rusjan Airport, 13.0 nm (24.0 km) NE.

2024/02/25 09:30 (retrieved 28 minutes ago)

LJMB 250930Z 21005KT 9999 FEW044 BKN200 09/03 Q1011

Closest aviation forecast (TAF) to Slovenske Konjice Airfield

Closest forecast is Maribor Edvard Rusjan Airport, 13.0 nm (24.0 km) NE.

2024/02/25 06:06 (retrieved 4 hours ago)

TAF LJMB 250500Z 2506/2606 VRB03KT CAVOK BECMG 2511/2513 20010KT PROB40 TEMPO 2602/2606 20015G25KT